createdAt,value
2022-08-03T00:01:39.338Z,74.52
2022-08-03T00:04:09.124Z,74.58
2022-08-03T00:06:37.802Z,74.58
2022-08-03T00:09:06.870Z,74.48
2022-08-03T00:11:35.381Z,74.40
2022-08-03T00:14:05.883Z,74.43
2022-08-03T00:16:34.259Z,74.58
2022-08-03T00:19:03.461Z,74.52
2022-08-03T00:21:31.633Z,74.63
2022-08-03T00:23:59.807Z,74.61
2022-08-03T00:26:27.977Z,74.44
2022-08-03T00:28:56.156Z,74.50
2022-08-03T00:31:39.925Z,74.83
2022-08-03T00:34:12.593Z,74.95
2022-08-03T00:36:40.847Z,75.01
2022-08-03T00:39:09.673Z,74.88
2022-08-03T00:41:37.913Z,74.79
2022-08-03T00:44:06.087Z,74.81
2022-08-03T00:46:34.258Z,74.84
2022-08-03T00:49:02.803Z,74.86
2022-08-03T00:51:32.079Z,74.84
2022-08-03T00:54:00.317Z,74.91
2022-08-03T00:56:28.490Z,74.84
2022-08-03T00:58:58.302Z,74.77
2022-08-03T01:01:26.512Z,74.85
2022-08-03T01:04:00.487Z,74.93
2022-08-03T01:06:46.377Z,74.94
2022-08-03T01:09:21.050Z,74.97
2022-08-03T01:12:08.120Z,74.84
2022-08-03T01:14:47.075Z,74.96
2022-08-03T01:17:25.972Z,75.07
2022-08-03T01:20:01.796Z,75.00
2022-08-03T01:23:03.593Z,75.07
2022-08-03T01:25:54.351Z,75.01
2022-08-03T01:28:29.664Z,74.90
2022-08-03T01:31:04.461Z,75.06
2022-08-03T01:33:47.483Z,75.24
2022-08-03T01:36:22.415Z,75.35
2022-08-03T01:38:59.139Z,75.47
2022-08-03T01:41:33.918Z,75.42
2022-08-03T01:44:30.047Z,75.55
2022-08-03T01:46:55.764Z,75.68
2022-08-03T01:49:26.158Z,75.65
2022-08-03T01:52:03.498Z,75.65
2022-08-03T01:54:38.004Z,75.50
2022-08-03T01:57:07.124Z,75.45
2022-08-03T01:59:37.319Z,75.59
2022-08-03T02:02:19.547Z,75.68
2022-08-03T02:04:59.471Z,75.68
2022-08-03T02:07:30.617Z,75.63
2022-08-03T02:10:00.528Z,75.62
2022-08-03T02:12:31.573Z,75.61
2022-08-03T02:15:01.107Z,75.68
2022-08-03T02:17:39.057Z,75.87
2022-08-03T02:20:13.706Z,75.75
2022-08-03T02:22:44.131Z,75.95
2022-08-03T02:25:14.154Z,75.90
2022-08-03T02:27:55.532Z,75.75
2022-08-03T02:30:31.291Z,75.84
2022-08-03T02:33:01.813Z,75.98
2022-08-03T02:35:32.648Z,76.09
2022-08-03T02:38:05.329Z,76.16
2022-08-03T02:40:34.076Z,76.14
2022-08-03T02:43:12.498Z,76.03
2022-08-03T02:45:46.029Z,76.27
2022-08-03T02:48:19.118Z,76.32
2022-08-03T02:50:48.829Z,76.24
2022-08-03T02:53:18.516Z,76.29
2022-08-03T02:55:49.477Z,76.27
2022-08-03T02:58:24.204Z,76.14
2022-08-03T03:00:53.991Z,76.13
2022-08-03T03:03:22.778Z,76.07
2022-08-03T03:05:57.552Z,76.11
2022-08-03T03:08:28.687Z,75.97
2022-08-03T03:10:59.933Z,75.97
2022-08-03T03:13:31.971Z,75.83
2022-08-03T03:16:02.926Z,75.90
2022-08-03T03:18:33.559Z,76.09
2022-08-03T03:21:05.366Z,76.16
2022-08-03T03:23:36.971Z,76.07
2022-08-03T03:26:06.379Z,76.22
2022-08-03T03:28:37.177Z,76.09
2022-08-03T03:31:09.787Z,76.03
2022-08-03T03:33:38.884Z,76.26
2022-08-03T03:36:08.110Z,76.17
2022-08-03T03:38:37.176Z,76.30
2022-08-03T03:41:06.021Z,76.32
2022-08-03T03:43:34.854Z,76.33
2022-08-03T03:46:03.461Z,76.36
2022-08-03T03:48:32.302Z,76.32
2022-08-03T03:51:02.072Z,76.47
2022-08-03T03:53:30.419Z,76.54
2022-08-03T03:56:01.772Z,76.59
2022-08-03T03:58:32.757Z,76.44
2022-08-03T04:01:01.721Z,76.41
2022-08-03T04:03:30.282Z,76.64
2022-08-03T04:06:17.195Z,76.80
2022-08-03T04:09:04.722Z,76.88
2022-08-03T04:11:39.776Z,76.79
2022-08-03T04:14:16.838Z,76.84
2022-08-03T04:16:52.488Z,77.09
2022-08-03T04:19:28.648Z,77.09
2022-08-03T04:22:01.553Z,77.20
2022-08-03T04:24:41.715Z,77.13
2022-08-03T04:27:13.139Z,77.19
2022-08-03T04:29:48.613Z,77.13
2022-08-03T04:32:18.277Z,77.24
2022-08-03T04:34:47.471Z,77.18
2022-08-03T04:37:22.321Z,77.08
2022-08-03T04:39:53.976Z,76.89
2022-08-03T04:42:27.422Z,76.75
2022-08-03T04:45:01.109Z,76.83
2022-08-03T04:47:33.756Z,76.83
2022-08-03T04:50:03.198Z,76.63
2022-08-03T04:52:32.385Z,76.73
2022-08-03T04:55:00.633Z,76.64
2022-08-03T04:57:28.808Z,76.60
2022-08-03T05:00:02.673Z,76.60
2022-08-03T05:02:32.397Z,76.70
2022-08-03T05:05:00.710Z,76.65
2022-08-03T05:07:35.538Z,76.60
2022-08-03T05:10:15.000Z,76.56
2022-08-03T05:12:46.533Z,76.36
2022-08-03T05:15:15.438Z,76.46
2022-08-03T05:17:44.327Z,76.58
2022-08-03T05:20:13.194Z,76.63
2022-08-03T05:22:44.649Z,76.72
2022-08-03T05:25:17.745Z,76.59
2022-08-03T05:27:49.240Z,76.62
2022-08-03T05:30:30.541Z,76.79
2022-08-03T05:33:03.526Z,76.88
2022-08-03T05:36:00.434Z,76.97
2022-08-03T05:38:23.844Z,77.12
2022-08-03T05:41:22.765Z,77.20
2022-08-03T05:43:46.428Z,77.26
2022-08-03T05:46:15.116Z,77.36
2022-08-03T05:48:43.803Z,77.40
2022-08-03T05:51:12.351Z,77.55
2022-08-03T05:53:43.528Z,77.82
2022-08-03T05:56:14.018Z,77.75
2022-08-03T05:58:46.249Z,77.76
2022-08-03T06:01:16.151Z,78.01
2022-08-03T06:03:45.883Z,78.27
2022-08-03T06:06:14.126Z,78.24
2022-08-03T06:08:43.732Z,78.32
2022-08-03T06:11:12.502Z,78.34
2022-08-03T06:13:41.337Z,78.48
2022-08-03T06:16:10.302Z,78.33
2022-08-03T06:18:39.087Z,78.37
2022-08-03T06:21:14.664Z,78.08
2022-08-03T06:23:54.368Z,78.12
2022-08-03T06:26:25.731Z,78.02
2022-08-03T06:28:55.123Z,77.87
2022-08-03T06:31:33.239Z,78.14
2022-08-03T06:34:32.238Z,77.80
2022-08-03T06:36:53.513Z,77.89
2022-08-03T06:39:23.459Z,77.75
2022-08-03T06:41:53.721Z,77.82
2022-08-03T06:44:21.963Z,78.01
2022-08-03T06:46:50.137Z,77.96
2022-08-03T06:49:18.579Z,77.84
2022-08-03T06:52:03.997Z,77.78
2022-08-03T06:54:35.831Z,77.47
2022-08-03T06:57:04.554Z,77.53
2022-08-03T07:00:08.851Z,77.48
2022-08-03T07:02:21.104Z,77.24
2022-08-03T07:04:49.511Z,77.11
2022-08-03T07:07:19.608Z,77.18
2022-08-03T07:09:57.168Z,76.90
2022-08-03T07:12:30.758Z,76.76
2022-08-03T07:15:01.909Z,77.01
2022-08-03T07:17:33.762Z,76.99
2022-08-03T07:20:08.284Z,76.84
2022-08-03T07:22:36.661Z,76.70
2022-08-03T07:25:05.742Z,76.57
2022-08-03T07:27:34.137Z,76.62
2022-08-03T07:30:02.310Z,76.79
2022-08-03T07:32:31.846Z,76.78
2022-08-03T07:35:01.243Z,76.70
2022-08-03T07:37:30.583Z,76.25
2022-08-03T07:40:03.198Z,76.22
2022-08-03T07:42:31.952Z,75.84
2022-08-03T07:45:00.368Z,75.97
2022-08-03T07:47:34.780Z,75.96
2022-08-03T07:50:06.358Z,75.85
2022-08-03T07:52:49.922Z,75.78
2022-08-03T07:55:22.661Z,75.67
2022-08-03T07:58:02.536Z,75.36
2022-08-03T08:00:31.188Z,75.15
2022-08-03T08:02:59.307Z,74.80
2022-08-03T08:05:29.689Z,74.76
2022-08-03T08:07:58.372Z,74.79
2022-08-03T08:10:26.545Z,74.48
2022-08-03T08:12:55.353Z,74.74
2022-08-03T08:15:23.713Z,74.69
2022-08-03T08:17:57.314Z,75.15
2022-08-03T08:20:31.470Z,74.84
2022-08-03T08:23:02.912Z,74.63
2022-08-03T08:25:32.283Z,73.92
2022-08-03T08:28:30.278Z,73.57
2022-08-03T08:30:52.897Z,73.64
2022-08-03T08:33:23.188Z,73.55
2022-08-03T08:35:53.592Z,73.39
2022-08-03T08:38:23.484Z,73.20
2022-08-03T08:40:52.251Z,73.32
2022-08-03T08:43:20.421Z,73.24
2022-08-03T08:45:54.535Z,73.15
2022-08-03T08:48:28.034Z,73.05
2022-08-03T08:50:57.974Z,72.72
2022-08-03T08:53:30.363Z,72.86
2022-08-03T08:56:02.897Z,72.57
2022-08-03T08:58:37.319Z,72.73
2022-08-03T09:01:06.951Z,72.97
2022-08-03T09:03:35.201Z,72.82
2022-08-03T09:06:04.202Z,72.87
2022-08-03T09:08:33.203Z,72.52
2022-08-03T09:11:01.574Z,72.27
2022-08-03T09:13:30.764Z,72.27
2022-08-03T09:16:22.723Z,71.83
2022-08-03T09:18:54.500Z,71.16
2022-08-03T09:21:34.673Z,71.50
2022-08-03T09:24:10.280Z,71.15
2022-08-03T09:26:53.841Z,70.73
2022-08-03T09:29:23.095Z,69.97
2022-08-03T09:32:02.845Z,69.86
2022-08-03T09:34:31.320Z,70.61
2022-08-03T09:36:59.544Z,70.39
2022-08-03T09:39:41.055Z,70.23
2022-08-03T09:42:18.435Z,70.21
2022-08-03T09:44:48.384Z,69.74
2022-08-03T09:47:28.530Z,68.84
2022-08-03T09:50:07.372Z,68.86
2022-08-03T09:52:51.832Z,68.82
2022-08-03T09:56:32.706Z,68.75
2022-08-03T09:58:10.838Z,68.07
2022-08-03T10:01:03.820Z,67.42
2022-08-03T10:04:03.552Z,66.08
2022-08-03T10:06:29.095Z,67.21
2022-08-03T10:09:07.288Z,66.65
2022-08-03T10:11:40.845Z,66.98
2022-08-03T10:14:19.361Z,66.75
2022-08-03T10:16:48.831Z,66.00
2022-08-03T10:19:17.638Z,66.46
2022-08-03T10:21:54.068Z,65.86
2022-08-03T10:24:26.676Z,65.95
2022-08-03T10:27:15.199Z,66.15
2022-08-03T10:29:48.718Z,64.54
2022-08-03T10:32:52.810Z,64.76
2022-08-03T10:35:21.963Z,65.03
2022-08-03T10:37:58.804Z,65.18
2022-08-03T10:43:23.201Z,65.62
2022-08-03T10:45:52.112Z,65.22
2022-08-03T10:48:21.572Z,65.13
2022-08-03T10:50:50.821Z,65.76
2022-08-03T10:53:36.161Z,65.52
2022-08-03T10:56:27.419Z,65.95
2022-08-03T10:59:12.035Z,65.43
2022-08-03T11:01:59.480Z,65.16
2022-08-03T11:04:30.474Z,64.43
2022-08-03T11:07:17.909Z,64.19
2022-08-03T11:09:48.803Z,64.44
2022-08-03T11:12:34.753Z,63.50
2022-08-03T11:15:08.834Z,63.34
2022-08-03T11:17:46.162Z,63.65
2022-08-03T11:20:55.087Z,62.76
2022-08-03T11:24:04.129Z,62.74
2022-08-03T11:26:35.095Z,62.13
2022-08-03T11:29:29.918Z,61.76
2022-08-03T11:31:58.551Z,62.27
2022-08-03T11:34:26.926Z,61.70
2022-08-03T11:37:22.093Z,61.52
2022-08-03T11:39:53.204Z,61.96
2022-08-03T11:42:24.780Z,60.98
2022-08-03T11:45:00.372Z,61.02
2022-08-03T11:47:32.331Z,60.60
2022-08-03T11:50:02.445Z,59.57
2022-08-03T11:52:42.842Z,58.70
2022-08-03T11:55:12.929Z,58.27
2022-08-03T11:59:01.386Z,58.50
2022-08-03T12:00:32.244Z,57.87
2022-08-03T12:03:14.666Z,57.46
2022-08-03T12:05:52.758Z,57.71
2022-08-03T12:08:27.252Z,57.83
2022-08-03T12:10:57.167Z,57.25
2022-08-03T12:14:43.876Z,56.55
2022-08-03T12:16:26.723Z,56.04
2022-08-03T12:19:07.018Z,56.46
2022-08-03T12:21:35.328Z,56.36
2022-08-03T12:24:05.228Z,55.65
2022-08-03T12:26:44.684Z,55.87
2022-08-03T12:29:26.477Z,55.55
2022-08-03T12:31:56.157Z,55.95
2022-08-03T12:34:24.461Z,55.81
2022-08-03T12:36:56.537Z,54.28
2022-08-03T12:39:30.910Z,54.51
2022-08-03T12:41:59.746Z,54.75
2022-08-03T12:44:33.134Z,55.37
2022-08-03T12:47:02.843Z,54.83
2022-08-03T12:49:52.417Z,54.61
2022-08-03T12:52:23.048Z,54.41
2022-08-03T12:54:58.597Z,54.50
2022-08-03T12:57:41.514Z,53.92
2022-08-03T13:00:21.570Z,54.13
2022-08-03T13:05:57.748Z,53.14
2022-08-03T13:08:26.354Z,53.43
2022-08-03T13:10:54.609Z,53.55
2022-08-03T13:13:41.041Z,53.63
2022-08-03T13:16:09.184Z,53.81
2022-08-03T13:18:37.256Z,53.05
2022-08-03T13:21:06.354Z,53.26
2022-08-03T13:23:34.630Z,53.12
2022-08-03T13:26:02.800Z,52.48
2022-08-03T13:28:31.080Z,52.81
2022-08-03T13:30:59.456Z,52.14
2022-08-03T13:33:31.419Z,52.15
2022-08-03T13:35:59.538Z,51.94
2022-08-03T13:38:27.825Z,51.83
2022-08-03T13:40:56.863Z,51.60
2022-08-03T13:43:25.036Z,51.56
2022-08-03T13:45:57.681Z,51.11
2022-08-03T13:48:34.712Z,50.75
2022-08-03T13:51:11.550Z,51.33
2022-08-03T13:53:52.483Z,50.68
2022-08-03T13:56:20.620Z,50.41
2022-08-03T13:58:48.793Z,50.56
2022-08-03T14:01:18.563Z,50.63
2022-08-03T14:03:55.278Z,49.77
2022-08-03T14:06:25.094Z,50.01
2022-08-03T14:08:54.476Z,49.81
2022-08-03T14:11:24.203Z,49.48
2022-08-03T14:14:13.165Z,49.38
2022-08-03T14:16:41.339Z,49.31
2022-08-03T14:19:09.514Z,49.59
2022-08-03T14:21:40.554Z,49.27
2022-08-03T14:24:08.899Z,48.53
2022-08-03T14:26:37.109Z,48.64
2022-08-03T14:29:06.008Z,48.51
2022-08-03T14:32:11.093Z,48.31
2022-08-03T14:34:22.314Z,48.58
2022-08-03T14:36:55.608Z,48.53
2022-08-03T14:39:23.806Z,48.77
2022-08-03T14:41:51.903Z,48.46
2022-08-03T14:44:20.040Z,48.96
2022-08-03T14:46:48.203Z,49.21
2022-08-03T14:50:36.116Z,49.32
2022-08-03T14:52:05.579Z,49.75
2022-08-03T14:54:33.715Z,49.14
2022-08-03T14:57:01.992Z,49.16
2022-08-03T14:59:56.235Z,49.77
2022-08-03T15:02:23.924Z,50.01
2022-08-03T15:04:52.931Z,49.82
2022-08-03T15:07:21.296Z,49.90
2022-08-03T15:09:49.586Z,49.99
2022-08-03T15:12:17.874Z,49.41
2022-08-03T15:14:46.243Z,49.16
2022-08-03T15:17:14.417Z,49.75
2022-08-03T15:20:03.743Z,49.72
2022-08-03T15:22:34.680Z,49.67
2022-08-03T15:26:04.143Z,49.49
2022-08-03T15:28:03.493Z,50.13
2022-08-03T15:30:36.098Z,50.42
2022-08-03T15:33:05.310Z,50.74
2022-08-03T15:35:33.540Z,50.96
2022-08-03T15:38:04.969Z,50.83
2022-08-03T15:40:35.771Z,51.17
2022-08-03T15:43:04.236Z,50.64
2022-08-03T15:45:36.147Z,50.58
2022-08-03T15:48:06.439Z,50.86
2022-08-03T15:50:34.733Z,51.04
2022-08-03T15:53:03.092Z,50.18
2022-08-03T15:55:31.813Z,49.75
2022-08-03T15:59:09.944Z,50.17
2022-08-03T16:00:48.195Z,49.88
2022-08-03T16:03:16.370Z,49.76
2022-08-03T16:05:47.410Z,49.93
2022-08-03T16:08:15.584Z,49.97
2022-08-03T16:10:44.011Z,49.67
2022-08-03T16:13:12.459Z,49.84
2022-08-03T16:15:40.619Z,48.86
2022-08-03T16:18:09.200Z,49.53
2022-08-03T16:20:37.275Z,49.46
2022-08-03T16:23:10.574Z,49.57
2022-08-03T16:25:40.755Z,49.35
2022-08-03T16:28:13.784Z,49.63
2022-08-03T16:30:45.226Z,49.67
2022-08-03T16:33:17.401Z,50.16
2022-08-03T16:35:47.040Z,49.67
2022-08-03T16:38:18.770Z,49.94
2022-08-03T16:40:52.192Z,49.83
2022-08-03T16:43:22.536Z,50.01
2022-08-03T16:45:51.907Z,50.01
2022-08-03T16:48:20.365Z,50.14
2022-08-03T16:50:48.539Z,50.29
2022-08-03T16:53:18.592Z,50.51
2022-08-03T16:56:03.705Z,50.70
2022-08-03T16:58:41.890Z,51.71
2022-08-03T17:01:21.931Z,51.76
2022-08-03T17:04:03.034Z,52.01
2022-08-03T17:06:44.906Z,52.51
2022-08-03T17:09:21.431Z,52.90
2022-08-03T17:11:51.203Z,53.36
2022-08-03T17:14:28.505Z,54.00
2022-08-03T17:17:06.812Z,54.61
2022-08-03T17:19:39.875Z,54.46
2022-08-03T17:22:12.509Z,54.54
2022-08-03T17:24:51.350Z,55.70
2022-08-03T17:28:48.657Z,55.51
2022-08-03T17:30:18.983Z,55.64
2022-08-03T17:32:53.510Z,56.34
2022-08-03T17:35:34.542Z,56.67
2022-08-03T17:38:11.985Z,57.00
2022-08-03T17:40:49.983Z,57.20
2022-08-03T17:44:12.709Z,57.61
2022-08-03T17:46:10.923Z,57.62
2022-08-03T17:48:41.476Z,57.86
2022-08-03T17:51:31.141Z,58.11
2022-08-03T17:54:00.438Z,58.15
2022-08-03T17:56:40.323Z,58.64
2022-08-03T17:59:52.830Z,58.54
2022-08-03T18:03:01.299Z,58.68
2022-08-03T18:06:09.074Z,58.93
2022-08-03T18:08:29.958Z,59.08
2022-08-03T18:11:14.296Z,59.19
2022-08-03T18:14:16.584Z,59.27
2022-08-03T18:16:52.610Z,59.26
2022-08-03T18:20:02.184Z,59.08
2022-08-03T18:22:12.407Z,59.07
2022-08-03T18:24:42.646Z,59.35
2022-08-03T18:27:16.025Z,59.16
2022-08-03T18:29:49.013Z,59.86
2022-08-03T18:32:17.358Z,59.97
2022-08-03T18:34:53.800Z,59.99
2022-08-03T18:37:25.858Z,60.03
2022-08-03T18:39:57.978Z,60.43
2022-08-03T18:42:27.006Z,60.88
2022-08-03T18:44:56.926Z,60.68
2022-08-03T18:50:48.240Z,61.15
2022-08-03T18:54:03.659Z,61.43
2022-08-03T18:56:48.788Z,61.47
2022-08-03T18:59:30.096Z,61.56
2022-08-03T19:02:23.525Z,62.02
2022-08-03T19:04:54.408Z,62.23
2022-08-03T19:07:27.666Z,62.18
2022-08-03T19:10:09.274Z,62.53
2022-08-03T19:13:03.438Z,62.76
2022-08-03T19:15:36.385Z,62.70
2022-08-03T19:18:10.429Z,62.62
2022-08-03T19:20:40.673Z,63.02
2022-08-03T19:23:11.597Z,63.07
2022-08-03T19:25:40.728Z,63.03
2022-08-03T19:28:09.839Z,63.46
2022-08-03T19:30:40.456Z,63.55
2022-08-03T19:33:11.361Z,63.63
2022-08-03T19:35:55.421Z,63.82
2022-08-03T19:38:28.579Z,63.88
2022-08-03T19:41:01.174Z,63.79
2022-08-03T19:43:52.977Z,64.05
2022-08-03T19:46:31.079Z,63.80
2022-08-03T19:49:17.100Z,63.68
2022-08-03T19:52:01.483Z,63.66
2022-08-03T19:54:45.858Z,63.48
2022-08-03T19:57:28.729Z,63.37
2022-08-03T19:59:57.953Z,63.33
2022-08-03T20:02:28.048Z,63.50
2022-08-03T20:05:00.542Z,63.46
2022-08-03T20:07:32.584Z,63.79
2022-08-03T20:10:03.215Z,64.05
2022-08-03T20:12:39.093Z,63.81
2022-08-03T20:15:09.339Z,63.61
2022-08-03T20:17:55.366Z,63.67
2022-08-03T20:20:34.011Z,63.48
2022-08-03T20:23:07.709Z,63.46
2022-08-03T20:25:48.658Z,64.02
2022-08-03T20:28:50.262Z,63.92
2022-08-03T20:31:32.066Z,64.31
2022-08-03T20:34:06.656Z,64.53
2022-08-03T20:36:35.239Z,64.44
2022-08-03T20:39:07.524Z,64.65
2022-08-03T20:41:36.506Z,64.67
2022-08-03T20:44:06.652Z,64.26
2022-08-03T20:46:50.317Z,64.37
2022-08-03T20:49:23.691Z,64.25
2022-08-03T20:51:53.174Z,64.37
2022-08-03T20:54:29.621Z,64.43
2022-08-03T20:57:03.795Z,64.20
2022-08-03T20:59:50.092Z,63.91
2022-08-03T21:02:29.796Z,63.61
2022-08-03T21:05:09.195Z,63.49
2022-08-03T21:08:03.822Z,63.76
2022-08-03T21:10:32.709Z,63.75
2022-08-03T21:13:00.464Z,60.97
2022-08-03T21:13:17.473Z,63.94
2022-08-03T21:16:02.447Z,63.92
2022-08-03T21:18:45.916Z,64.24
2022-08-03T21:21:16.510Z,64.36
2022-08-03T21:23:48.591Z,64.31
2022-08-03T21:26:20.325Z,64.59
2022-08-03T21:28:50.960Z,64.51
2022-08-03T21:31:24.336Z,64.72
2022-08-03T21:33:56.930Z,64.81
2022-08-03T21:36:27.959Z,64.91
2022-08-03T21:38:57.414Z,64.90
2022-08-03T21:41:28.085Z,64.73
2022-08-03T21:43:56.896Z,64.87
2022-08-03T21:46:27.043Z,64.97
2022-08-03T21:50:04.514Z,64.83
2022-08-03T21:51:50.131Z,65.17
2022-08-03T21:54:21.905Z,64.91
2022-08-03T21:56:53.299Z,64.92
2022-08-03T21:59:23.728Z,64.84
2022-08-03T22:01:55.193Z,65.06
2022-08-03T22:04:50.069Z,65.05
2022-08-03T22:07:16.240Z,65.12
2022-08-03T22:09:50.938Z,65.41
2022-08-03T22:12:23.000Z,65.62
2022-08-03T22:15:00.830Z,65.66
2022-08-03T22:17:55.758Z,64.94
2022-08-03T22:20:23.887Z,64.72
2022-08-03T22:22:57.138Z,64.76
2022-08-03T22:25:31.953Z,64.66
2022-08-03T22:28:08.156Z,65.01
2022-08-03T22:30:37.163Z,65.10
2022-08-03T22:33:08.357Z,64.73
2022-08-03T22:35:48.310Z,64.77
2022-08-03T22:38:19.590Z,64.54
2022-08-03T22:40:51.283Z,64.26
2022-08-03T22:43:27.370Z,64.22
2022-08-03T22:46:09.398Z,64.24
2022-08-03T22:48:41.742Z,64.30
2022-08-03T22:51:10.673Z,64.06
2022-08-03T22:53:39.664Z,63.68
2022-08-03T22:56:09.141Z,63.74
2022-08-03T22:58:37.448Z,63.97
2022-08-03T23:01:10.438Z,64.26
2022-08-03T23:04:01.150Z,64.27
2022-08-03T23:06:39.035Z,64.42
2022-08-03T23:09:13.765Z,64.44
2022-08-03T23:11:46.076Z,64.45
2022-08-03T23:14:18.416Z,64.34
2022-08-03T23:16:47.675Z,64.54
2022-08-03T23:19:25.299Z,64.61
2022-08-03T23:22:02.859Z,64.56
2022-08-03T23:24:38.278Z,64.52
2022-08-03T23:27:08.356Z,64.20
2022-08-03T23:29:39.755Z,64.32
2022-08-03T23:32:08.803Z,64.36
2022-08-03T23:34:58.682Z,64.63
2022-08-03T23:37:27.187Z,64.72
2022-08-03T23:39:57.488Z,64.47
2022-08-03T23:42:26.355Z,64.50
2022-08-03T23:44:59.329Z,64.43
2022-08-03T23:47:47.035Z,64.44
2022-08-03T23:50:16.630Z,64.43
2022-08-03T23:53:29.424Z,64.33
2022-08-03T23:56:13.983Z,64.41
2022-08-03T23:59:04.581Z,64.24
